Latest Weather Observations for Cape Naturaliste

IDW60801

Issued at 9:33 am WST Sunday 25 September 2016 (issued every 30 minutes, with the page automatically refreshed every 10 minutes)

About weather observations | Map of weather stations | Latest weather observations for WA | Other Formats
Station Details ID: 009519 Name: CAPE NATURALISTE Lat: -33.54 Lon: 115.02 Height: 109.0 m
Data from the previous 72 hours. | See also: Recent months at Cape Naturaliste
Date/Time
WST
Temp
°C
App
Temp
°C
Dew
Point
°C
Rel
Hum
%
Delta-T
°C
Wind Press
QNH
hPa
Press
MSL
hPa
Rain since
9am
mm
Dir  Spd
km/h
Gust
km/h
Spd
kts
Gust
kts
25/09:30am 12.5 5.4 1.2 46 4.8 S 28 43 15 23 1019.2 1019.1 0.0
25/09:13am 12.7 5.8 2.6 50 4.4 S 28 46 15 25 1019.2 1019.1 0.0
25/09:00am 12.0 5.0 2.2 51 4.2 S 28 43 15 23 1019.1 1019.0 3.0
25/08:30am 12.1 6.4 2.8 53 4.1 SSE 22 30 12 16 1018.7 1018.7 3.0
25/08:00am 11.2 5.6 3.5 59 3.4 SSE 22 33 12 18 1018.3 1018.3 3.0
25/07:30am 9.7 4.1 3.2 64 2.8 SSE 22 37 12 20 1018.0 1018.0 3.0
25/07:00am 8.7 2.2 2.7 66 2.5 SSE 26 39 14 21 1017.7 1017.7 3.0
25/06:30am 7.5 0.5 2.2 69 2.2 SSE 28 39 15 21 1017.2 1017.2 3.0
25/06:00am 7.5 0.2 2.2 69 2.2 S 30 39 16 21 1016.6 1016.6 3.0
25/05:30am 7.3 -0.4 2.2 70 2.1 SSE 32 41 17 22 1016.3 1016.3 3.0
25/05:00am 7.2 -0.4 3.1 75 1.7 S 32 46 17 25 1016.0 1016.0 3.0
25/04:30am 7.7 0.2 4.3 79 1.5 S 33 44 18 24 1015.5 1015.5 3.0
25/04:00am 8.1 0.5 5.6 84 1.1 S 35 44 19 24 1015.2 1015.2 3.0
25/03:30am 8.2 1.2 6.0 86 1.0 S 32 44 17 24 1014.9 1014.9 3.0
25/03:00am 7.9 0.3 6.0 88 0.9 S 35 46 19 25 1014.4 1014.3 3.0
25/02:30am 8.2 0.7 6.3 88 0.9 S 35 46 19 25 1014.0 1013.9 3.0
25/02:00am 8.7 0.9 6.8 88 0.9 S 37 52 20 28 1013.7 1013.6 3.0
25/01:30am 9.2 2.3 7.3 88 0.9 S 33 46 18 25 1013.7 1013.6 3.0
25/01:00am 9.8 2.6 7.7 87 1.0 S 35 46 19 25 1013.3 1013.2 2.2
25/12:37am 11.0 5.0 8.6 85 1.2 SW 30 54 16 29 1013.1 1013.0 0.8
25/12:35am 11.1 5.5 8.7 85 1.2 SW 28 50 15 27 1013.0 1012.9 0.8
25/12:30am 11.0 5.7 8.6 85 1.2 SW 26 35 14 19 1013.0 1012.9 0.8
25/12:00am 11.6 6.5 9.2 85 1.2 WSW 26 39 14 21 1013.0 1012.9 0.8
 
Date/Time
WST
Temp
°C
App
Temp
°C
Dew
Point
°C
Rel
Hum
%
Delta-T
°C
Wind Press
QNH
hPa
Press
MSL
hPa
Rain since
9am
mm
Dir  Spd
km/h
Gust
km/h
Spd
kts
Gust
kts
24/11:30pm 10.8 5.5 8.4 85 1.2 WSW 26 35 14 19 1013.3 1013.2 0.8
24/11:00pm 10.7 5.8 8.5 86 1.1 WSW 24 32 13 17 1013.3 1013.2 0.8
24/10:30pm 10.7 5.0 8.5 86 1.1 WSW 28 35 15 19 1013.4 1013.3 0.8
24/10:00pm 11.1 5.5 8.8 86 1.1 WSW 28 35 15 19 1013.6 1013.5 0.6
24/09:30pm 10.7 4.9 8.1 84 1.3 WSW 28 35 15 19 1013.6 1013.5 0.6
24/09:00pm 11.4 4.9 8.3 81 1.5 WSW 32 43 17 23 1013.7 1013.6 0.4
24/08:52pm 11.7 3.5 8.0 78 1.8 WSW 41 59 22 32 1013.6 1013.5 0.2
24/08:44pm 12.3 5.1 7.8 74 2.2 W 35 59 19 32 1013.4 1013.3 0.0
24/08:41pm 12.9 6.8 8.2 73 2.3 WNW 30 57 16 31 1013.4 1013.3 0.0
24/08:30pm 12.7 7.3 8.2 74 2.2 WNW 26 33 14 18 1013.4 1013.3 0.0
24/08:00pm 12.3 6.8 7.4 72 2.4 WNW 26 33 14 18 1013.2 1013.1 0.0
24/07:30pm 12.2 6.3 7.5 73 2.3 WNW 28 35 15 19 1013.1 1013.0 0.0
24/07:00pm 11.8 6.7 7.7 76 2.0 WNW 24 37 13 20 1012.9 1012.8 0.0
24/06:30pm 11.7 7.0 7.8 77 1.9 WNW 22 28 12 15 1013.0 1012.9 0.0
24/06:00pm 12.0 7.7 7.9 76 2.0 WNW 20 28 11 15 1012.9 1012.8 0.0
24/05:30pm 11.2 6.9 7.1 76 2.0 NW 19 24 10 13 1013.0 1012.9 0.0
24/05:00pm 13.2 8.1 6.1 62 3.4 WNW 22 32 12 17 1012.9 1012.8 0.0
24/04:30pm 13.5 8.1 6.4 62 3.4 NW 24 30 13 16 1012.9 1012.8 0.0
24/04:00pm 14.3 8.8 5.7 56 4.1 NW 24 33 13 18 1012.9 1012.8 0.0
24/03:30pm 14.4 8.9 6.0 57 4.0 NW 24 33 13 18 1013.0 1012.9 0.0
24/03:00pm 16.1 10.4 6.5 53 4.7 NW 26 35 14 19 1013.2 1013.1 0.0
24/02:30pm 16.6 11.1 5.9 49 5.2 NW 24 35 13 19 1013.4 1013.3 0.0
24/02:00pm 15.3 10.0 5.0 50 4.9 NNW 22 32 12 17 1013.5 1013.4 0.0
24/01:30pm 16.2 10.7 6.1 51 4.9 NW 24 30 13 16 1013.9 1013.8 0.0
24/01:00pm 16.4 11.5 6.8 53 4.8 NW 22 32 12 17 1014.3 1014.2 0.0
24/12:30pm 15.7 10.0 5.0 49 5.1 WNW 24 32 13 17 1014.8 1014.8 0.0
24/12:00pm 15.5 10.0 6.0 53 4.6 NW 24 30 13 16 1015.2 1015.2 0.0
24/11:30am 14.5 9.6 7.1 61 3.6 WNW 22 30 12 16 1015.6 1015.6 0.0
24/11:00am 12.5 9.0 7.4 71 2.5 WNW 15 24 8 13 1015.7 1015.7 0.0
24/10:30am 13.1 7.9 5.3 59 3.7 NW 22 32 12 17 1016.0 1016.0 0.0
24/10:00am 14.3 9.5 4.6 52 4.5 NW 19 26 10 14 1016.2 1016.2 0.0
24/09:30am 13.9 8.8 3.9 51 4.6 WNW 20 28 11 15 1016.4 1016.4 0.0
24/09:00am 13.1 8.1 3.7 53 4.2 NW 19 24 10 13 1016.5 1016.5 1.2
24/08:30am 12.7 8.7 4.9 59 3.6 W 15 20 8 11 1016.5 1016.5 1.2
24/08:00am 12.1 7.6 5.9 66 2.9 W 19 24 10 13 1016.4 1016.4 1.2
24/07:30am 11.8 7.0 4.8 62 3.2 W 19 26 10 14 1016.1 1016.1 1.2
24/07:00am 10.1 6.2 3.2 62 3.0 WNW 13 19 7 10 1016.2 1016.2 1.2
24/06:30am 9.9 5.6 3.4 64 2.8 WNW 15 19 8 10 1016.0 1016.0 1.2
24/06:00am 9.4 5.0 2.7 63 2.9 WNW 15 20 8 11 1015.8 1015.8 1.2
24/05:30am 9.6 4.9 2.9 63 2.9 WNW 17 20 9 11 1015.9 1015.9 1.2
24/05:00am 9.4 4.7 3.4 66 2.6 W 17 24 9 13 1015.7 1015.7 1.2
24/04:30am 9.3 5.1 3.7 68 2.5 W 15 20 8 11 1015.6 1015.6 1.2
24/04:00am 9.6 5.0 3.6 66 2.6 W 17 26 9 14 1015.7 1015.7 1.2
24/03:30am 9.5 5.7 4.1 69 2.4 WNW 13 20 7 11 1015.7 1015.7 1.2
24/03:00am 9.3 4.7 3.9 69 2.4 WNW 17 20 9 11 1015.8 1015.8 1.2
24/02:30am 9.4 4.5 4.0 69 2.4 WNW 19 22 10 12 1015.9 1015.9 1.2
24/02:00am 9.6 5.1 4.0 68 2.5 WSW 17 20 9 11 1016.0 1016.0 1.2
24/01:30am 9.7 4.9 4.5 70 2.3 WSW 19 28 10 15 1016.1 1016.1 1.2
24/01:00am 9.7 4.9 4.7 71 2.2 SW 19 24 10 13 1016.1 1016.1 1.2
24/12:30am 9.0 4.5 4.4 73 2.0 SW 17 26 9 14 1016.1 1016.1 1.2
24/12:00am 7.8 4.2 2.9 71 2.1 SSW 11 15 6 8 1016.4 1016.4 1.2
 
Date/Time
WST
Temp
°C
App
Temp
°C
Dew
Point
°C
Rel
Hum
%
Delta-T
°C
Wind Press
QNH
hPa
Press
MSL
hPa
Rain since
9am
mm
Dir  Spd
km/h
Gust
km/h
Spd
kts
Gust
kts
23/11:30pm 8.0 4.0 3.1 71 2.1 SSW 13 17 7 9 1016.7 1016.7 1.2
23/11:00pm 8.5 5.4 3.4 70 2.2 WSW 9 15 5 8 1016.9 1016.9 1.2
23/10:30pm 9.9 5.2 3.0 62 3.0 WSW 17 24 9 13 1017.2 1017.2 0.8
23/10:00pm 10.1 5.5 3.8 65 2.8 SW 17 24 9 13 1017.3 1017.3 0.8
23/09:30pm 9.8 5.5 3.5 65 2.8 SW 15 22 8 12 1017.5 1017.5 0.8
23/09:00pm 9.6 4.5 3.1 64 2.8 SW 19 26 10 14 1017.6 1017.6 0.8
23/08:30pm 9.4 4.4 3.4 66 2.6 SW 19 26 10 14 1017.6 1017.6 0.8
23/08:00pm 9.5 3.9 3.7 67 2.5 SSW 22 37 12 20 1017.3 1017.3 0.8
23/07:30pm 9.6 4.7 4.0 68 2.5 SSW 19 30 10 16 1016.8 1016.8 0.8
23/07:00pm 9.4 4.2 3.4 66 2.6 S 20 30 11 16 1016.8 1016.8 0.8
23/06:30pm 10.1 4.8 3.2 62 3.0 SW 20 30 11 16 1016.5 1016.5 0.8
23/06:00pm 9.8 3.5 1.7 57 3.4 SW 24 32 13 17 1016.4 1016.4 0.8
23/05:30pm 10.6 4.7 4.1 64 2.9 SSW 24 32 13 17 1016.1 1016.1 0.8
23/05:00pm 9.4 3.7 5.0 74 2.0 SSW 24 41 13 22 1015.9 1015.9 0.8
23/04:30pm 10.2 4.2 5.4 72 2.2 SW 26 35 14 19 1015.8 1015.8 0.6
23/04:00pm 12.4 5.4 3.9 56 3.8 S 30 50 16 27 1015.5 1015.5 0.2
23/03:52pm 12.4 4.9 3.4 54 4.0 SSW 32 50 17 27 1015.3 1015.3 0.2
23/03:30pm 14.2 7.2 3.9 50 4.7 SSW 30 41 16 22 1015.2 1015.2 0.2
23/03:00pm 13.3 5.7 2.8 49 4.7 SSW 32 44 17 24 1015.0 1015.0 0.2
23/02:30pm 12.3 4.7 2.7 52 4.2 SSW 32 43 17 23 1015.0 1015.0 0.2
23/02:00pm 13.5 6.3 5.2 57 3.9 SSW 32 43 17 23 1014.9 1014.9 0.2
23/01:30pm 12.2 5.5 5.6 64 3.1 SSW 30 43 16 23 1014.9 1014.9 0.2
23/01:07pm 13.3 4.8 3.1 50 4.6 SSW 37 56 20 30 1014.8 1014.8 0.2
23/01:00pm 13.8 4.6 3.6 50 4.6 SSW 41 56 22 30 1014.8 1014.8 0.2
23/12:47pm 13.8 6.5 4.7 54 4.2 SSW 32 50 17 27 1014.8 1014.8 0.2
23/12:30pm 13.6 5.1 3.4 50 4.6 SSW 37 54 20 29 1014.9 1014.9 0.2
23/12:03pm 12.1 4.9 5.0 62 3.3 SSW 32 52 17 28 1014.9 1014.9 0.2
23/12:00pm 11.2 3.8 4.0 61 3.2 SSW 32 44 17 24 1014.9 1014.9 0.2
23/11:49am 11.5 3.4 3.0 56 3.7 SSW 35 56 19 30 1014.9 1014.9 0.2
23/11:30am 12.6 5.3 2.5 50 4.4 SW 30 43 16 23 1014.8 1014.8 0.2
23/11:00am 11.6 4.0 3.1 56 3.7 SSW 32 43 17 23 1015.0 1015.0 0.2
23/10:40am 13.6 5.9 5.3 57 3.9 SSW 35 54 19 29 1014.7 1014.7 0.2
23/10:30am 13.2 5.6 4.1 54 4.2 SW 33 48 18 26 1014.8 1014.8 0.2
23/10:00am 11.1 3.5 2.9 57 3.6 SW 32 43 17 23 1014.8 1014.8 0.2
23/09:41am 10.9 4.5 5.0 67 2.7 SSW 28 44 15 24 1014.9 1014.9 0.2
23/09:30am 10.6 5.9 6.0 73 2.1 S 20 26 11 14 1015.1 1015.1 0.2
23/09:02am 8.6 0.9 3.2 69 2.3 SSW 33 52 18 28 1015.1 1015.1 0.2
23/09:00am 8.9 0.5 3.5 69 2.3 SW 37 54 20 29 1015.1 1015.1 2.2
23/08:37am 10.1 0.3 3.4 63 2.9 SW 44 63 24 34 1014.6 1014.5 2.2
23/08:30am 10.2 -0.3 3.9 65 2.8 SW 48 65 26 35 1014.3 1014.2 2.2
23/08:22am 10.8 2.6 4.7 66 2.8 SW 37 57 20 31 1014.2 1014.1 2.2
23/08:00am 8.8 1.6 3.2 68 2.4 SSW 30 39 16 21 1014.2 1014.1 2.2
23/07:43am 10.8 3.9 4.5 65 2.8 SSW 30 50 16 27 1013.9 1013.8 2.2
23/07:30am 10.2 4.0 4.1 66 2.7 SW 26 39 14 21 1014.0 1013.9 2.2
23/07:00am 8.9 1.4 4.3 73 2.0 SW 33 46 18 25 1013.6 1013.5 2.2
23/06:30am 7.4 -1.7 4.0 79 1.5 SW 41 59 22 32 1013.5 1013.4 2.0
23/06:00am 9.3 0.2 3.9 69 2.4 SW 41 69 22 37 1013.0 1012.9 1.6
23/05:58am 10.0 1.7 4.0 66 2.7 SW 37 56 20 30 1013.1 1013.0 1.6
23/05:30am 9.2 0.1 3.8 69 2.4 SSW 41 56 22 30 1012.6 1012.5 1.6
23/05:00am 9.2 0.3 3.0 65 2.7 SW 39 63 21 34 1012.4 1012.3 1.6
23/04:50am 10.3 2.0 4.0 65 2.8 SW 37 57 20 31 1012.1 1012.0 1.6
23/04:30am 10.1 2.1 3.6 64 2.9 SSW 35 48 19 26 1011.8 1011.7 1.6
23/04:07am 10.0 2.1 4.6 69 2.4 SSW 35 54 19 29 1011.9 1011.8 1.6
23/04:00am 10.2 1.9 4.4 67 2.6 SSW 37 54 20 29 1011.9 1011.8 1.6
23/03:57am 10.3 2.4 4.2 66 2.7 SW 35 54 19 29 1011.9 1011.8 1.6
23/03:30am 10.0 0.8 3.7 65 2.8 SW 41 54 22 29 1011.9 1011.8 1.6
23/03:00am 9.7 1.9 4.7 71 2.2 SW 35 54 19 29 1011.6 1011.5 1.6
23/02:58am 9.4 2.2 4.8 73 2.1 SW 32 50 17 27 1011.6 1011.5 1.6
23/02:30am 9.6 2.2 4.8 72 2.2 SW 33 44 18 24 1011.7 1011.6 1.4
23/02:00am 10.0 2.8 5.0 71 2.3 SW 32 46 17 25 1011.6 1011.5 1.4
23/01:40am 9.7 2.2 4.5 70 2.3 SW 33 52 18 28 1011.7 1011.6 1.4
23/01:30am 10.1 1.8 4.0 66 2.7 SW 37 50 20 27 1011.7 1011.6 1.4
23/01:00am 10.7 1.7 4.8 67 2.7 SW 41 61 22 33 1011.5 1011.4 1.4
23/12:30am 10.9 1.4 4.1 63 3.0 SW 43 56 23 30 1011.5 1011.4 1.4
23/12:00am 11.1 1.4 3.9 61 3.2 WSW 44 59 24 32 1011.6 1011.5 1.4
 
Date/Time
WST
Temp
°C
App
Temp
°C
Dew
Point
°C
Rel
Hum
%
Delta-T
°C
Wind Press
QNH
hPa
Press
MSL
hPa
Rain since
9am
mm
Dir  Spd
km/h
Gust
km/h
Spd
kts
Gust
kts
22/11:30pm 10.5 2.4 5.1 69 2.5 SW 37 52 20 28 1011.9 1011.8 1.2
22/11:05pm 11.1 1.9 3.6 60 3.3 SW 41 59 22 32 1011.9 1011.8 1.2
22/11:00pm 11.1 2.6 5.2 67 2.7 WSW 39 56 21 30 1012.0 1011.9 1.2
22/10:30pm 11.1 2.4 4.1 62 3.1 WSW 39 50 21 27 1012.1 1012.0 1.2
22/10:17pm 11.1 2.9 4.6 64 3.0 WSW 37 57 20 31 1012.1 1012.0 1.2
22/10:00pm 10.9 2.6 4.4 64 2.9 WSW 37 48 20 26 1012.3 1012.2 1.2
22/09:30pm 11.3 2.5 3.6 59 3.4 SW 39 48 21 26 1012.2 1012.1 1.2
22/09:00pm 11.5 3.7 4.9 64 3.0 WSW 35 46 19 25 1012.1 1012.0 1.2
22/08:36pm 11.6 3.5 5.3 65 2.9 SW 37 56 20 30 1012.1 1012.0 1.2
22/08:30pm 11.5 2.9 4.9 64 3.0 SW 39 48 21 26 1012.1 1012.0 1.2
22/08:00pm 11.5 2.8 6.0 69 2.6 SW 41 54 22 29 1012.0 1011.9 1.2
22/07:30pm 11.6 3.4 6.7 72 2.3 SW 39 54 21 29 1011.5 1011.4 1.2
22/07:00pm 11.1 4.1 7.0 76 2.0 SW 33 44 18 24 1011.4 1011.3 1.2
22/06:30pm 10.9 3.0 8.0 82 1.4 WSW 39 50 21 27 1011.2 1011.1 1.2
22/06:00pm 10.5 3.4 7.9 84 1.3 WSW 35 44 19 24 1011.3 1011.2 1.2
22/05:30pm 10.6 0.9 7.7 82 1.4 SW 48 69 26 37 1010.8 1010.7 1.0
22/05:00pm 11.4 3.8 7.7 78 1.8 WSW 37 57 20 31 1010.9 1010.8 1.0
22/04:42pm 13.2 6.2 7.0 66 3.0 WSW 33 52 18 28 1010.6 1010.5 0.2
22/04:30pm 13.7 6.8 6.6 62 3.4 W 32 41 17 22 1010.5 1010.4 0.2
22/04:00pm 15.5 8.5 7.0 57 4.2 WSW 33 44 18 24 1010.6 1010.5 0.2
22/03:30pm 15.5 8.8 7.3 58 4.1 WSW 32 44 17 24 1010.4 1010.3 0.2
22/03:00pm 14.6 7.5 6.4 58 4.0 WSW 33 44 18 24 1010.3 1010.2 0.2
22/02:30pm 15.1 7.6 6.1 55 4.4 WSW 35 48 19 26 1010.3 1010.2 0.2
22/02:00pm 15.7 8.2 6.2 53 4.6 WSW 35 48 19 26 1010.3 1010.2 0.2
22/01:30pm 14.7 7.0 7.3 61 3.7 WSW 37 52 20 28 1010.3 1010.2 0.2
22/01:00pm 15.2 7.3 8.0 62 3.6 WSW 39 52 21 28 1010.3 1010.2 0.2
22/12:32pm 14.4 6.8 7.7 64 3.3 SW 37 56 20 30 1010.3 1010.2 0.2
22/12:30pm 15.5 8.7 9.2 66 3.3 SW 35 48 19 26 1010.3 1010.2 0.2
22/12:00pm 15.5 7.4 8.7 64 3.5 WSW 41 52 22 28 1010.3 1010.2 0.2
22/11:30am 14.8 7.6 9.0 68 3.0 SW 37 50 20 27 1010.4 1010.3 0.2
22/11:00am 13.5 5.5 9.0 74 2.3 WSW 41 52 22 28 1010.5 1010.4 0.2
22/10:30am 13.1 6.4 9.7 80 1.7 SW 35 48 19 26 1010.4 1010.3 0.2
22/10:00am 14.0 8.3 11.2 83 1.5 SW 32 44 17 24 1010.3 1010.2 0.2

Other Formats:

Comma delimited format used in spreadsheet applications
http://www.bom.gov.au/fwo/IDW60801/IDW60801.94600.axf

JavaScript Object Notation format (JSON) in row-major order
http://www.bom.gov.au/fwo/IDW60801/IDW60801.94600.json